Terminal Aerodrome Forecast
Issued by NWS

Home | Current Version | Previous Version | Text Only | Print | Product List | Glossary On
Versions: 1 2 3 4 5 6 7 8 9 10 11 12 13
931
FTUS45 KABQ 261739
TAFTCC
TAF
KTCC 261739Z 2618/2718 29015G25KT P6SM FEW080
     FM261930 35020G30KT P6SM SCT080
     FM270000 02015G23KT P6SM SCT080
     FM270300 05005KT P6SM SCT250=

USA.gov is the U.S. government's official web portal to all federal, state and local government web resources and services.